createdAt,value
2018-04-16T00:00:39.838Z,14.30
2018-04-16T00:05:36.667Z,14.17
2018-04-16T00:10:32.464Z,13.96
2018-04-16T00:15:33.089Z,13.87
2018-04-16T00:20:32.911Z,13.85
2018-04-16T00:25:32.809Z,13.78
2018-04-16T00:30:27.532Z,13.78
2018-04-16T00:35:28.568Z,13.96
2018-04-16T00:40:24.050Z,13.97
2018-04-16T00:45:21.019Z,14.20
2018-04-16T00:50:16.793Z,14.26
2018-04-16T00:55:16.535Z,14.17
2018-04-16T01:00:16.497Z,13.96
2018-04-16T01:05:12.757Z,13.99
2018-04-16T01:10:15.093Z,13.97
2018-04-16T01:15:11.477Z,13.89
2018-04-16T01:20:08.770Z,13.79
2018-04-16T01:25:10.768Z,13.65
2018-04-16T01:30:06.550Z,13.60
2018-04-16T01:35:06.994Z,13.68
2018-04-16T01:40:06.680Z,13.68
2018-04-16T01:45:06.064Z,13.77
2018-04-16T01:50:06.820Z,13.68
2018-04-16T01:55:01.787Z,13.54
2018-04-16T01:59:57.504Z,13.49
2018-04-16T02:04:53.668Z,13.31
2018-04-16T02:09:53.386Z,13.30
2018-04-16T02:14:49.795Z,13.31
2018-04-16T02:19:46.547Z,13.28
2018-04-16T02:24:46.467Z,13.31
2018-04-16T02:29:42.648Z,13.28
2018-04-16T02:34:39.320Z,13.16
2018-04-16T02:39:40.683Z,13.19
2018-04-16T02:44:37.385Z,13.13
2018-04-16T02:49:39.508Z,13.31
2018-04-16T02:54:34.073Z,13.15
2018-04-16T02:59:29.995Z,13.11
2018-04-16T03:04:30.710Z,13.09
2018-04-16T03:09:26.908Z,13.16
2018-04-16T03:14:28.534Z,13.11
2018-04-16T03:19:24.299Z,13.16
2018-04-16T03:24:23.960Z,13.28
2018-04-16T03:29:23.183Z,13.22
2018-04-16T03:34:18.923Z,13.22
2018-04-16T03:39:14.617Z,13.18
2018-04-16T03:44:15.234Z,13.01
2018-04-16T03:49:16.007Z,12.94
2018-04-16T03:54:11.606Z,12.79
2018-04-16T03:59:07.268Z,12.55
2018-04-16T04:04:03.210Z,12.55
2018-04-16T04:08:58.802Z,12.57
2018-04-16T04:13:55.592Z,12.53
2018-04-16T04:18:52.149Z,12.50
2018-04-16T04:23:51.743Z,12.37
2018-04-16T04:28:49.755Z,12.31
2018-04-16T04:33:52.697Z,12.47
2018-04-16T04:38:53.691Z,12.37
2018-04-16T04:43:48.703Z,12.47
2018-04-16T04:48:49.903Z,12.54
2018-04-16T04:53:49.573Z,12.67
2018-04-16T04:58:44.559Z,12.75
2018-04-16T05:03:41.663Z,12.79
2018-04-16T05:08:37.328Z,12.87
2018-04-16T05:13:34.156Z,12.94
2018-04-16T05:18:35.172Z,12.95
2018-04-16T05:23:31.408Z,12.83
2018-04-16T05:28:32.089Z,12.82
2018-04-16T05:33:32.116Z,12.83
2018-04-16T05:38:27.432Z,12.90
2018-04-16T05:43:24.481Z,13.01
2018-04-16T05:48:25.311Z,13.04
2018-04-16T05:53:25.314Z,13.23
2018-04-16T05:58:25.295Z,13.31
2018-04-16T06:03:20.168Z,13.52
2018-04-16T06:08:21.136Z,13.85
2018-04-16T06:13:17.409Z,13.78
2018-04-16T06:18:14.812Z,14.10
2018-04-16T06:23:16.250Z,14.69
2018-04-16T06:28:16.638Z,14.96
2018-04-16T06:33:13.870Z,14.99
2018-04-16T06:38:14.367Z,14.97
2018-04-16T06:43:10.393Z,14.99
2018-04-16T06:48:06.221Z,15.10
2018-04-16T06:53:02.680Z,15.36
2018-04-16T06:58:01.466Z,15.79
2018-04-16T07:03:01.346Z,15.92
2018-04-16T07:07:58.987Z,16.42
2018-04-16T07:13:01.069Z,16.54
2018-04-16T07:17:59.803Z,16.51
2018-04-16T07:23:00.055Z,16.42
2018-04-16T07:27:56.437Z,16.38
2018-04-16T07:32:57.084Z,16.42
2018-04-16T07:42:56.540Z,16.29
2018-04-16T07:47:51.780Z,16.50
2018-04-16T07:52:48.990Z,16.60
2018-04-16T07:57:48.624Z,16.91
2018-04-16T08:02:49.035Z,17.64
2018-04-16T08:07:46.656Z,18.60
2018-04-16T08:12:49.125Z,19.88
2018-04-16T08:17:49.076Z,19.96
2018-04-16T08:22:46.468Z,20.13
2018-04-16T08:27:49.002Z,20.62
2018-04-16T08:32:49.846Z,20.37
2018-04-16T08:37:54.560Z,20.22
2018-04-16T08:42:53.648Z,19.55
2018-04-16T08:47:48.085Z,19.34
2018-04-16T08:52:49.124Z,19.86
2018-04-16T08:57:44.304Z,19.71
2018-04-16T09:02:41.047Z,19.48
2018-04-16T09:07:36.476Z,19.56
2018-04-16T09:12:36.474Z,19.36
2018-04-16T09:17:35.524Z,19.15
2018-04-16T09:22:36.172Z,19.39
2018-04-16T09:37:45.667Z,18.81
2018-04-16T09:42:44.277Z,18.59
2018-04-16T09:47:44.739Z,18.89
2018-04-16T09:52:40.731Z,18.84
2018-04-16T09:57:39.180Z,19.22
2018-04-16T10:02:39.236Z,19.39
2018-04-16T10:07:40.579Z,19.36
2018-04-16T10:17:45.082Z,21.85
2018-04-16T10:22:46.267Z,21.85
2018-04-16T10:27:40.811Z,21.37
2018-04-16T10:32:42.262Z,21.00
2018-04-16T10:37:40.063Z,20.04
2018-04-16T10:42:34.890Z,19.74
2018-04-16T10:47:36.646Z,20.29
2018-04-16T10:52:33.981Z,21.12
2018-04-16T10:57:30.237Z,20.60
2018-04-16T11:02:30.329Z,20.62
2018-04-16T11:07:29.759Z,20.32
2018-04-16T11:12:30.546Z,20.90
2018-04-16T11:17:28.140Z,21.36
2018-04-16T11:22:22.445Z,20.40
2018-04-16T11:27:18.075Z,19.95
2018-04-16T11:32:17.731Z,20.07
2018-04-16T11:37:21.722Z,19.95
2018-04-16T11:42:17.640Z,20.65
2018-04-16T11:47:22.132Z,22.06
2018-04-16T11:52:16.689Z,22.39
2018-04-16T11:57:20.204Z,23.05
2018-04-16T12:02:16.659Z,24.05
2018-04-16T12:07:09.567Z,22.38
2018-04-16T12:12:04.566Z,21.99
2018-04-16T12:17:00.608Z,21.67
2018-04-16T12:21:55.784Z,20.74
2018-04-16T12:26:52.690Z,20.87
2018-04-16T12:31:48.531Z,20.81
2018-04-16T12:36:45.387Z,20.87
2018-04-16T12:46:44.275Z,20.96
2018-04-16T12:51:39.755Z,20.77
2018-04-16T12:56:36.796Z,20.75
2018-04-16T13:06:37.805Z,20.55
2018-04-16T13:11:36.503Z,20.48
2018-04-16T13:16:31.594Z,20.63
2018-04-16T13:21:29.609Z,20.44
2018-04-16T13:26:26.262Z,19.99
2018-04-16T13:31:25.412Z,19.89
2018-04-16T13:36:24.388Z,19.77
2018-04-16T13:41:25.211Z,19.58
2018-04-16T13:46:19.912Z,19.85
2018-04-16T13:51:19.994Z,20.02
2018-04-16T13:56:16.080Z,20.32
2018-04-16T14:01:13.128Z,20.16
2018-04-16T14:06:09.158Z,20.39
2018-04-16T14:11:10.979Z,19.95
2018-04-16T14:16:05.881Z,19.89
2018-04-16T14:21:01.776Z,20.13
2018-04-16T14:26:03.578Z,20.77
2018-04-16T14:31:02.998Z,20.62
2018-04-16T14:36:04.230Z,20.77
2018-04-16T14:41:03.679Z,20.47
2018-04-16T14:46:04.516Z,20.31
2018-04-16T14:51:04.263Z,20.32
2018-04-16T14:55:59.119Z,20.19
2018-04-16T15:00:56.238Z,19.99
2018-04-16T15:05:56.915Z,19.88
2018-04-16T15:10:52.740Z,19.71
2018-04-16T15:15:49.676Z,19.67
2018-04-16T15:20:52.071Z,19.48
2018-04-16T15:25:48.496Z,19.15
2018-04-16T15:30:45.186Z,19.12
2018-04-16T15:35:48.789Z,19.12
2018-04-16T15:40:47.523Z,19.12
2018-04-16T15:45:42.683Z,19.07
2018-04-16T15:50:43.202Z,18.98
2018-04-16T15:55:38.341Z,18.89
2018-04-16T16:00:37.254Z,18.98
2018-04-16T16:05:34.302Z,18.92
2018-04-16T16:10:33.997Z,18.96
2018-04-16T16:15:31.352Z,18.99
2018-04-16T16:20:28.777Z,18.90
2018-04-16T16:25:28.874Z,18.74
2018-04-16T16:30:28.263Z,18.50
2018-04-16T16:35:27.071Z,18.40
2018-04-16T16:40:21.936Z,18.55
2018-04-16T16:45:19.006Z,18.18
2018-04-16T16:50:18.464Z,18.18
2018-04-16T16:55:17.513Z,18.16
2018-04-16T17:00:17.769Z,18.04
2018-04-16T17:05:17.906Z,18.05
2018-04-16T17:10:18.001Z,17.95
2018-04-16T17:15:12.728Z,17.86
2018-04-16T17:20:10.974Z,17.74
2018-04-16T17:25:07.733Z,17.83
2018-04-16T17:30:04.118Z,17.65
2018-04-16T17:34:59.831Z,17.36
2018-04-16T17:39:55.893Z,17.44
2018-04-16T17:44:56.312Z,17.22
2018-04-16T17:49:56.282Z,17.22
2018-04-16T17:54:51.387Z,17.11
2018-04-16T17:59:47.038Z,17.05
2018-04-16T18:09:50.932Z,16.83
2018-04-16T18:14:51.084Z,16.75
2018-04-16T18:19:50.456Z,16.71
2018-04-16T18:24:45.138Z,16.49
2018-04-16T18:29:40.969Z,16.35
2018-04-16T18:34:38.809Z,16.21
2018-04-16T18:39:39.126Z,16.04
2018-04-16T18:44:35.035Z,16.10
2018-04-16T18:49:32.070Z,15.86
2018-04-16T18:54:31.708Z,15.86
2018-04-16T18:59:30.535Z,15.70
2018-04-16T19:04:25.159Z,15.67
2018-04-16T19:09:25.457Z,15.59
2018-04-16T19:14:21.392Z,15.44
2018-04-16T19:19:21.895Z,15.36
2018-04-16T19:24:18.764Z,15.31
2018-04-16T19:29:20.297Z,15.21
2018-04-16T19:34:20.785Z,15.15
2018-04-16T19:39:19.854Z,15.15
2018-04-16T19:44:19.677Z,15.14
2018-04-16T19:49:15.469Z,15.00
2018-04-16T19:54:12.812Z,14.85
2018-04-16T19:59:13.957Z,14.82
2018-04-16T20:04:11.196Z,14.84
2018-04-16T20:09:07.777Z,14.73
2018-04-16T20:14:07.650Z,14.66
2018-04-16T20:19:04.886Z,14.58
2018-04-16T20:24:00.946Z,14.45
2018-04-16T20:28:56.740Z,14.45
2018-04-16T20:33:57.572Z,14.36
2018-04-16T20:38:53.856Z,14.50
2018-04-16T20:43:54.014Z,14.30
2018-04-16T20:48:55.395Z,14.36
2018-04-16T20:53:55.501Z,14.17
2018-04-16T20:58:50.489Z,14.17
2018-04-16T21:03:50.190Z,14.12
2018-04-16T21:08:45.964Z,14.07
2018-04-16T21:13:43.461Z,13.87
2018-04-16T21:18:43.960Z,13.93
2018-04-16T21:23:44.046Z,13.68
2018-04-16T21:28:39.989Z,13.65
2018-04-16T21:33:40.390Z,13.47
2018-04-16T21:38:35.580Z,13.30
2018-04-16T21:43:31.560Z,13.19
2018-04-16T21:48:28.930Z,13.22
2018-04-16T21:53:26.512Z,13.37
2018-04-16T21:58:22.066Z,13.20
2018-04-16T22:03:22.967Z,13.04
2018-04-16T22:08:22.731Z,12.93
2018-04-16T22:13:17.985Z,12.83
2018-04-16T22:18:14.533Z,12.80
2018-04-16T22:23:11.221Z,12.87
2018-04-16T22:28:06.973Z,12.91
2018-04-16T22:33:06.704Z,12.83
2018-04-16T22:38:05.824Z,12.78
2018-04-16T22:43:01.976Z,12.80
2018-04-16T22:48:02.670Z,12.68
2018-04-16T22:52:57.437Z,12.80
2018-04-16T22:57:57.287Z,12.80
2018-04-16T23:02:52.618Z,12.57
2018-04-16T23:07:49.019Z,12.55
2018-04-16T23:12:46.760Z,12.61
2018-04-16T23:17:43.195Z,12.62
2018-04-16T23:22:40.761Z,12.57
2018-04-16T23:27:37.660Z,12.40
2018-04-16T23:32:33.790Z,12.18
2018-04-16T23:37:30.533Z,11.91
2018-04-16T23:42:31.125Z,11.87
2018-04-16T23:47:27.160Z,11.86
2018-04-16T23:52:22.574Z,11.68
2018-04-16T23:57:18.395Z,11.72
